sensor_id;sensor_type;location;lat;lon;timestamp;temperature;humidity
71047;SHT31;58703;48.978;8.982;2022-09-16T00:01:17;12.20;99.99
71047;SHT31;58703;48.978;8.982;2022-09-16T00:03:44;12.22;99.99
71047;SHT31;58703;48.978;8.982;2022-09-16T00:06:37;12.34;99.99
71047;SHT31;58703;48.978;8.982;2022-09-16T00:09:02;12.39;99.99
71047;SHT31;58703;48.978;8.982;2022-09-16T00:11:31;12.39;99.99
71047;SHT31;58703;48.978;8.982;2022-09-16T00:13:58;12.32;99.99
71047;SHT31;58703;48.978;8.982;2022-09-16T00:16:26;12.26;99.99
71047;SHT31;58703;48.978;8.982;2022-09-16T00:18:56;12.24;99.99
71047;SHT31;58703;48.978;8.982;2022-09-16T00:21:23;12.21;99.99
71047;SHT31;58703;48.978;8.982;2022-09-16T00:23:49;12.18;99.99
71047;SHT31;58703;48.978;8.982;2022-09-16T00:26:15;12.15;99.99
71047;SHT31;58703;48.978;8.982;2022-09-16T00:28:41;12.20;99.99
71047;SHT31;58703;48.978;8.982;2022-09-16T00:31:07;12.18;99.99
71047;SHT31;58703;48.978;8.982;2022-09-16T00:33:33;12.17;99.99
71047;SHT31;58703;48.978;8.982;2022-09-16T00:36:06;12.11;99.99
71047;SHT31;58703;48.978;8.982;2022-09-16T00:38:33;12.13;99.99
71047;SHT31;58703;48.978;8.982;2022-09-16T00:40:59;12.11;99.99
71047;SHT31;58703;48.978;8.982;2022-09-16T00:43:24;12.15;99.99
71047;SHT31;58703;48.978;8.982;2022-09-16T00:45:56;12.15;99.99
71047;SHT31;58703;48.978;8.982;2022-09-16T00:48:26;12.21;99.99
71047;SHT31;58703;48.978;8.982;2022-09-16T00:50:58;12.24;99.99
71047;SHT31;58703;48.978;8.982;2022-09-16T00:53:33;12.22;99.99
71047;SHT31;58703;48.978;8.982;2022-09-16T00:56:04;12.18;99.99
71047;SHT31;58703;48.978;8.982;2022-09-16T00:58:40;12.15;99.99
71047;SHT31;58703;48.978;8.982;2022-09-16T01:01:07;12.13;99.99
71047;SHT31;58703;48.978;8.982;2022-09-16T01:03:38;12.11;99.99
71047;SHT31;58703;48.978;8.982;2022-09-16T01:06:08;12.05;99.99
71047;SHT31;58703;48.978;8.982;2022-09-16T01:08:34;12.07;99.99
71047;SHT31;58703;48.978;8.982;2022-09-16T01:10:59;12.08;99.99
71047;SHT31;58703;48.978;8.982;2022-09-16T01:13:25;11.99;99.99
71047;SHT31;58703;48.978;8.982;2022-09-16T01:15:56;11.95;99.99
71047;SHT31;58703;48.978;8.982;2022-09-16T01:21:47;11.88;99.99
71047;SHT31;58703;48.978;8.982;2022-09-16T01:30:09;11.80;99.99
71047;SHT31;58703;48.978;8.982;2022-09-16T01:37:54;11.77;99.99
71047;SHT31;58703;48.978;8.982;2022-09-16T01:40:59;11.80;99.99
71047;SHT31;58703;48.978;8.982;2022-09-16T01:46:09;11.73;99.99
71047;SHT31;58703;48.978;8.982;2022-09-16T01:51:13;11.71;99.99
71047;SHT31;58703;48.978;8.982;2022-09-16T01:53:54;11.66;99.99
71047;SHT31;58703;48.978;8.982;2022-09-16T01:56:31;11.67;99.99
71047;SHT31;58703;48.978;8.982;2022-09-16T01:59:10;11.67;99.99
71047;SHT31;58703;48.978;8.982;2022-09-16T02:01:44;11.63;99.99
71047;SHT31;58703;48.978;8.982;2022-09-16T02:04:18;11.66;99.99
71047;SHT31;58703;48.978;8.982;2022-09-16T02:06:48;11.62;99.99
71047;SHT31;58703;48.978;8.982;2022-09-16T02:09:20;11.59;99.99
71047;SHT31;58703;48.978;8.982;2022-09-16T02:11:49;11.57;99.99
71047;SHT31;58703;48.978;8.982;2022-09-16T02:14:21;11.47;99.99
71047;SHT31;58703;48.978;8.982;2022-09-16T02:16:53;11.42;99.99
71047;SHT31;58703;48.978;8.982;2022-09-16T02:19:22;11.39;99.99
71047;SHT31;58703;48.978;8.982;2022-09-16T02:21:50;11.40;99.99
71047;SHT31;58703;48.978;8.982;2022-09-16T02:24:18;11.42;99.99
71047;SHT31;58703;48.978;8.982;2022-09-16T02:26:57;11.39;99.99
71047;SHT31;58703;48.978;8.982;2022-09-16T02:29:27;11.40;99.99
71047;SHT31;58703;48.978;8.982;2022-09-16T02:31:57;11.40;99.99
71047;SHT31;58703;48.978;8.982;2022-09-16T02:34:28;11.42;99.99
71047;SHT31;58703;48.978;8.982;2022-09-16T02:36:55;11.39;99.99
71047;SHT31;58703;48.978;8.982;2022-09-16T02:39:31;11.30;99.99
71047;SHT31;58703;48.978;8.982;2022-09-16T02:42:00;11.33;99.99
71047;SHT31;58703;48.978;8.982;2022-09-16T02:44:26;11.34;99.99
71047;SHT31;58703;48.978;8.982;2022-09-16T02:47:06;11.34;99.99
71047;SHT31;58703;48.978;8.982;2022-09-16T02:49:55;11.36;99.99
71047;SHT31;58703;48.978;8.982;2022-09-16T02:57:36;11.56;99.99
71047;SHT31;58703;48.978;8.982;2022-09-16T03:00:04;11.57;99.99
71047;SHT31;58703;48.978;8.982;2022-09-16T03:02:33;11.57;99.99
71047;SHT31;58703;48.978;8.982;2022-09-16T03:04:59;11.47;99.99
71047;SHT31;58703;48.978;8.982;2022-09-16T03:07:25;11.40;99.99
71047;SHT31;58703;48.978;8.982;2022-09-16T03:09:51;11.33;99.99
71047;SHT31;58703;48.978;8.982;2022-09-16T03:23:18;11.33;99.99
71047;SHT31;58703;48.978;8.982;2022-09-16T03:29:40;11.33;99.99
71047;SHT31;58703;48.978;8.982;2022-09-16T03:34:19;11.36;99.99
71047;SHT31;58703;48.978;8.982;2022-09-16T03:36:51;11.34;99.99
71047;SHT31;58703;48.978;8.982;2022-09-16T03:39:17;11.39;99.99
71047;SHT31;58703;48.978;8.982;2022-09-16T03:41:44;11.42;99.99
71047;SHT31;58703;48.978;8.982;2022-09-16T03:44:09;11.44;99.99
71047;SHT31;58703;48.978;8.982;2022-09-16T03:46:35;11.49;99.99
71047;SHT31;58703;48.978;8.982;2022-09-16T03:49:00;11.44;99.99
71047;SHT31;58703;48.978;8.982;2022-09-16T03:51:26;11.42;99.99
71047;SHT31;58703;48.978;8.982;2022-09-16T03:53:52;11.40;99.99
71047;SHT31;58703;48.978;8.982;2022-09-16T03:56:18;11.40;99.99
71047;SHT31;58703;48.978;8.982;2022-09-16T03:58:46;11.40;99.99
71047;SHT31;58703;48.978;8.982;2022-09-16T04:01:12;11.42;99.99
71047;SHT31;58703;48.978;8.982;2022-09-16T04:03:39;11.46;99.99
71047;SHT31;58703;48.978;8.982;2022-09-16T04:06:04;11.44;99.99
71047;SHT31;58703;48.978;8.982;2022-09-16T04:08:30;11.42;99.99
71047;SHT31;58703;48.978;8.982;2022-09-16T04:10:57;11.43;99.99
71047;SHT31;58703;48.978;8.982;2022-09-16T04:13:24;11.43;99.99
71047;SHT31;58703;48.978;8.982;2022-09-16T04:15:49;11.44;99.99
71047;SHT31;58703;48.978;8.982;2022-09-16T04:18:15;11.43;99.99
71047;SHT31;58703;48.978;8.982;2022-09-16T04:20:41;11.46;99.99
71047;SHT31;58703;48.978;8.982;2022-09-16T04:23:07;11.54;99.99
71047;SHT31;58703;48.978;8.982;2022-09-16T04:25:33;11.56;99.99
71047;SHT31;58703;48.978;8.982;2022-09-16T04:27:59;11.54;99.99
71047;SHT31;58703;48.978;8.982;2022-09-16T04:30:25;11.53;99.99
71047;SHT31;58703;48.978;8.982;2022-09-16T04:32:54;11.54;99.99
71047;SHT31;58703;48.978;8.982;2022-09-16T04:35:20;11.53;99.99
71047;SHT31;58703;48.978;8.982;2022-09-16T04:37:46;11.53;99.99
71047;SHT31;58703;48.978;8.982;2022-09-16T04:40:11;11.54;99.99
71047;SHT31;58703;48.978;8.982;2022-09-16T04:42:37;11.50;99.99
71047;SHT31;58703;48.978;8.982;2022-09-16T04:45:03;11.57;99.99
71047;SHT31;58703;48.978;8.982;2022-09-16T04:47:29;11.57;99.99
71047;SHT31;58703;48.978;8.982;2022-09-16T04:49:55;11.59;99.99
71047;SHT31;58703;48.978;8.982;2022-09-16T04:52:20;11.63;99.99
71047;SHT31;58703;48.978;8.982;2022-09-16T04:54:47;11.60;99.99
71047;SHT31;58703;48.978;8.982;2022-09-16T04:57:13;11.62;99.99
71047;SHT31;58703;48.978;8.982;2022-09-16T04:59:38;11.62;99.99
71047;SHT31;58703;48.978;8.982;2022-09-16T05:02:04;11.62;99.99
71047;SHT31;58703;48.978;8.982;2022-09-16T05:04:30;11.63;99.99
71047;SHT31;58703;48.978;8.982;2022-09-16T05:06:55;11.69;99.99
71047;SHT31;58703;48.978;8.982;2022-09-16T05:09:21;11.69;99.99
71047;SHT31;58703;48.978;8.982;2022-09-16T05:11:47;11.66;99.99
71047;SHT31;58703;48.978;8.982;2022-09-16T05:14:15;11.64;99.99
71047;SHT31;58703;48.978;8.982;2022-09-16T05:16:42;11.62;99.99
71047;SHT31;58703;48.978;8.982;2022-09-16T05:19:10;11.62;99.99
71047;SHT31;58703;48.978;8.982;2022-09-16T05:21:37;11.70;99.99
71047;SHT31;58703;48.978;8.982;2022-09-16T05:24:06;11.69;99.99
71047;SHT31;58703;48.978;8.982;2022-09-16T05:26:38;11.69;99.99
71047;SHT31;58703;48.978;8.982;2022-09-16T05:29:07;11.69;99.99
71047;SHT31;58703;48.978;8.982;2022-09-16T05:31:36;11.70;99.99
71047;SHT31;58703;48.978;8.982;2022-09-16T05:34:04;11.74;99.99
71047;SHT31;58703;48.978;8.982;2022-09-16T05:36:32;11.77;99.99
71047;SHT31;58703;48.978;8.982;2022-09-16T05:38:58;11.75;99.99
71047;SHT31;58703;48.978;8.982;2022-09-16T05:41:24;11.78;99.99
71047;SHT31;58703;48.978;8.982;2022-09-16T05:43:50;11.88;99.99
71047;SHT31;58703;48.978;8.982;2022-09-16T05:46:22;11.91;99.99
71047;SHT31;58703;48.978;8.982;2022-09-16T05:48:48;11.91;99.99
71047;SHT31;58703;48.978;8.982;2022-09-16T05:51:16;11.90;99.99
71047;SHT31;58703;48.978;8.982;2022-09-16T05:53:42;11.87;99.99
71047;SHT31;58703;48.978;8.982;2022-09-16T05:56:16;11.85;99.99
71047;SHT31;58703;48.978;8.982;2022-09-16T05:58:42;11.93;99.99
71047;SHT31;58703;48.978;8.982;2022-09-16T06:01:14;11.95;99.99
71047;SHT31;58703;48.978;8.982;2022-09-16T06:03:41;11.98;99.99
71047;SHT31;58703;48.978;8.982;2022-09-16T06:06:28;12.01;99.99
71047;SHT31;58703;48.978;8.982;2022-09-16T06:08:56;11.99;99.99
71047;SHT31;58703;48.978;8.982;2022-09-16T06:11:23;12.02;99.99
71047;SHT31;58703;48.978;8.982;2022-09-16T06:13:55;11.99;99.99
71047;SHT31;58703;48.978;8.982;2022-09-16T06:16:23;11.98;99.99
71047;SHT31;58703;48.978;8.982;2022-09-16T06:18:55;11.99;99.99
71047;SHT31;58703;48.978;8.982;2022-09-16T06:21:22;12.04;99.99
71047;SHT31;58703;48.978;8.982;2022-09-16T06:23:48;12.02;99.99
71047;SHT31;58703;48.978;8.982;2022-09-16T06:26:15;12.08;99.99
71047;SHT31;58703;48.978;8.982;2022-09-16T06:28:42;12.04;99.99
71047;SHT31;58703;48.978;8.982;2022-09-16T06:31:19;11.99;99.99
71047;SHT31;58703;48.978;8.982;2022-09-16T06:33:46;11.99;99.99
71047;SHT31;58703;48.978;8.982;2022-09-16T06:36:19;12.01;99.99
71047;SHT31;58703;48.978;8.982;2022-09-16T06:38:46;12.05;99.99
71047;SHT31;58703;48.978;8.982;2022-09-16T06:41:13;12.10;99.99
71047;SHT31;58703;48.978;8.982;2022-09-16T06:43:39;12.15;99.99
71047;SHT31;58703;48.978;8.982;2022-09-16T06:46:11;12.20;99.99
71047;SHT31;58703;48.978;8.982;2022-09-16T06:48:49;12.22;99.99
71047;SHT31;58703;48.978;8.982;2022-09-16T06:51:23;12.21;99.99
71047;SHT31;58703;48.978;8.982;2022-09-16T06:53:50;12.20;99.99
71047;SHT31;58703;48.978;8.982;2022-09-16T06:56:17;12.29;99.99
71047;SHT31;58703;48.978;8.982;2022-09-16T06:58:45;12.29;99.33
71047;SHT31;58703;48.978;8.982;2022-09-16T07:01:19;12.45;99.74
71047;SHT31;58703;48.978;8.982;2022-09-16T07:03:46;12.39;98.82
71047;SHT31;58703;48.978;8.982;2022-09-16T07:06:13;12.44;98.89
71047;SHT31;58703;48.978;8.982;2022-09-16T07:08:40;12.39;96.09
71047;SHT31;58703;48.978;8.982;2022-09-16T07:13:40;12.52;97.90
71047;SHT31;58703;48.978;8.982;2022-09-16T07:16:08;12.63;97.86
71047;SHT31;58703;48.978;8.982;2022-09-16T07:18:33;12.66;97.30
71047;SHT31;58703;48.978;8.982;2022-09-16T07:21:04;12.70;97.20
71047;SHT31;58703;48.978;8.982;2022-09-16T07:23:31;12.53;94.97
71047;SHT31;58703;48.978;8.982;2022-09-16T07:26:08;12.42;95.96
71047;SHT31;58703;48.978;8.982;2022-09-16T07:28:36;12.44;97.00
71047;SHT31;58703;48.978;8.982;2022-09-16T07:31:04;12.34;95.98
71047;SHT31;58703;48.978;8.982;2022-09-16T07:33:31;12.42;97.13
71047;SHT31;58703;48.978;8.982;2022-09-16T07:36:00;12.45;96.18
71047;SHT31;58703;48.978;8.982;2022-09-16T07:38:28;12.48;96.57
71047;SHT31;58703;48.978;8.982;2022-09-16T07:40:54;12.45;96.02
71047;SHT31;58703;48.978;8.982;2022-09-16T07:43:20;12.49;95.78
71047;SHT31;58703;48.978;8.982;2022-09-16T07:45:53;12.65;96.42
71047;SHT31;58703;48.978;8.982;2022-09-16T07:48:19;12.68;95.53
71047;SHT31;58703;48.978;8.982;2022-09-16T07:51:15;12.65;95.81
71047;SHT31;58703;48.978;8.982;2022-09-16T07:53:39;12.95;97.67
71047;SHT31;58703;48.978;8.982;2022-09-16T07:56:08;13.06;97.53
71047;SHT31;58703;48.978;8.982;2022-09-16T07:58:34;13.04;96.07
71047;SHT31;58703;48.978;8.982;2022-09-16T08:01:00;13.04;95.14
71047;SHT31;58703;48.978;8.982;2022-09-16T08:03:27;12.96;93.88
71047;SHT31;58703;48.978;8.982;2022-09-16T08:05:58;13.17;95.87
71047;SHT31;58703;48.978;8.982;2022-09-16T08:08:25;13.38;96.20
71047;SHT31;58703;48.978;8.982;2022-09-16T08:10:55;13.47;94.08
71047;SHT31;58703;48.978;8.982;2022-09-16T08:13:20;13.61;93.68
71047;SHT31;58703;48.978;8.982;2022-09-16T08:15:46;13.75;95.89
71047;SHT31;58703;48.978;8.982;2022-09-16T08:18:12;13.74;94.19
71047;SHT31;58703;48.978;8.982;2022-09-16T08:20:38;13.81;94.88
71047;SHT31;58703;48.978;8.982;2022-09-16T08:23:03;13.81;93.27
71047;SHT31;58703;48.978;8.982;2022-09-16T08:25:29;13.86;92.68
71047;SHT31;58703;48.978;8.982;2022-09-16T08:27:54;13.82;90.39
71047;SHT31;58703;48.978;8.982;2022-09-16T08:30:20;13.62;92.97
71047;SHT31;58703;48.978;8.982;2022-09-16T08:32:46;13.47;92.81
71047;SHT31;58703;48.978;8.982;2022-09-16T08:35:11;13.57;94.76
71047;SHT31;58703;48.978;8.982;2022-09-16T08:37:39;13.53;92.48
71047;SHT31;58703;48.978;8.982;2022-09-16T08:40:06;13.48;91.09
71047;SHT31;58703;48.978;8.982;2022-09-16T08:42:44;13.47;93.43
71047;SHT31;58703;48.978;8.982;2022-09-16T08:45:38;13.51;92.61
71047;SHT31;58703;48.978;8.982;2022-09-16T08:48:33;13.55;92.52
71047;SHT31;58703;48.978;8.982;2022-09-16T08:51:08;13.62;92.50
71047;SHT31;58703;48.978;8.982;2022-09-16T08:56:06;13.38;91.05
71047;SHT31;58703;48.978;8.982;2022-09-16T08:58:39;13.44;92.02
71047;SHT31;58703;48.978;8.982;2022-09-16T09:04:00;13.55;92.79
71047;SHT31;58703;48.978;8.982;2022-09-16T09:09:22;13.60;92.58
71047;SHT31;58703;48.978;8.982;2022-09-16T09:19:57;13.78;92.70
71047;SHT31;58703;48.978;8.982;2022-09-16T09:30:24;13.79;92.31
71047;SHT31;58703;48.978;8.982;2022-09-16T09:41:50;14.37;91.24
71047;SHT31;58703;48.978;8.982;2022-09-16T09:47:34;14.46;90.33
71047;SHT31;58703;48.978;8.982;2022-09-16T09:50:19;14.60;90.17
71047;SHT31;58703;48.978;8.982;2022-09-16T09:55:32;14.11;89.70
71047;SHT31;58703;48.978;8.982;2022-09-16T10:00:33;14.46;89.58
71047;SHT31;58703;48.978;8.982;2022-09-16T10:03:11;14.39;89.73
71047;SHT31;58703;48.978;8.982;2022-09-16T10:05:37;14.30;88.92
71047;SHT31;58703;48.978;8.982;2022-09-16T10:10:46;13.98;88.84
71047;SHT31;58703;48.978;8.982;2022-09-16T10:13:13;14.15;90.19
71047;SHT31;58703;48.978;8.982;2022-09-16T10:15:39;14.28;89.63
71047;SHT31;58703;48.978;8.982;2022-09-16T10:18:13;14.36;89.15
71047;SHT31;58703;48.978;8.982;2022-09-16T10:20:42;14.40;89.44
71047;SHT31;58703;48.978;8.982;2022-09-16T10:23:14;14.28;88.69
71047;SHT31;58703;48.978;8.982;2022-09-16T10:25:42;14.22;89.99
71047;SHT31;58703;48.978;8.982;2022-09-16T10:28:23;14.26;89.87
71047;SHT31;58703;48.978;8.982;2022-09-16T10:30:52;14.06;89.33
71047;SHT31;58703;48.978;8.982;2022-09-16T10:33:33;13.83;89.27
71047;SHT31;58703;48.978;8.982;2022-09-16T10:36:04;13.89;90.76
71047;SHT31;58703;48.978;8.982;2022-09-16T10:39:01;13.82;90.71
71047;SHT31;58703;48.978;8.982;2022-09-16T10:41:31;13.75;91.21
71047;SHT31;58703;48.978;8.982;2022-09-16T10:44:01;13.78;90.41
71047;SHT31;58703;48.978;8.982;2022-09-16T10:46:29;13.70;90.91
71047;SHT31;58703;48.978;8.982;2022-09-16T10:49:09;13.65;90.84
71047;SHT31;58703;48.978;8.982;2022-09-16T10:51:37;13.68;91.08
71047;SHT31;58703;48.978;8.982;2022-09-16T10:54:10;13.64;89.82
71047;SHT31;58703;48.978;8.982;2022-09-16T10:56:50;13.61;89.47
71047;SHT31;58703;48.978;8.982;2022-09-16T10:59:16;13.65;90.38
71047;SHT31;58703;48.978;8.982;2022-09-16T11:04:52;13.72;90.04
71047;SHT31;58703;48.978;8.982;2022-09-16T11:07:43;13.77;89.90
71047;SHT31;58703;48.978;8.982;2022-09-16T11:10:35;13.89;88.75
71047;SHT31;58703;48.978;8.982;2022-09-16T11:16:38;13.88;87.99
71047;SHT31;58703;48.978;8.982;2022-09-16T11:30:47;14.79;86.59
71047;SHT31;58703;48.978;8.982;2022-09-16T11:39:09;15.08;82.80
71047;SHT31;58703;48.978;8.982;2022-09-16T11:47:18;15.23;81.10
71047;SHT31;58703;48.978;8.982;2022-09-16T11:55:53;15.35;81.14
71047;SHT31;58703;48.978;8.982;2022-09-16T11:58:49;16.05;77.13
71047;SHT31;58703;48.978;8.982;2022-09-16T12:06:59;16.33;76.35
71047;SHT31;58703;48.978;8.982;2022-09-16T12:12:33;17.36;72.86
71047;SHT31;58703;48.978;8.982;2022-09-16T12:15:12;16.98;71.56
71047;SHT31;58703;48.978;8.982;2022-09-16T12:17:51;16.71;73.03
71047;SHT31;58703;48.978;8.982;2022-09-16T12:20:41;17.38;73.63
71047;SHT31;58703;48.978;8.982;2022-09-16T12:23:19;18.17;68.32
71047;SHT31;58703;48.978;8.982;2022-09-16T12:26:04;17.91;71.09
71047;SHT31;58703;48.978;8.982;2022-09-16T12:28:43;17.32;70.34
71047;SHT31;58703;48.978;8.982;2022-09-16T12:31:36;17.35;67.65
71047;SHT31;58703;48.978;8.982;2022-09-16T12:34:43;17.59;68.79
71047;SHT31;58703;48.978;8.982;2022-09-16T12:40:02;17.96;63.24
71047;SHT31;58703;48.978;8.982;2022-09-16T12:45:28;18.20;65.89
71047;SHT31;58703;48.978;8.982;2022-09-16T12:48:01;17.97;67.17
71047;SHT31;58703;48.978;8.982;2022-09-16T12:56:29;17.60;69.26
71047;SHT31;58703;48.978;8.982;2022-09-16T13:01:50;17.74;64.72
71047;SHT31;58703;48.978;8.982;2022-09-16T13:04:24;17.15;64.88
71047;SHT31;58703;48.978;8.982;2022-09-16T13:06:55;17.60;66.16
71047;SHT31;58703;48.978;8.982;2022-09-16T13:09:37;17.60;63.78
71047;SHT31;58703;48.978;8.982;2022-09-16T13:12:23;17.65;64.74
71047;SHT31;58703;48.978;8.982;2022-09-16T13:14:54;18.07;63.20
71047;SHT31;58703;48.978;8.982;2022-09-16T13:17:32;18.20;63.21
71047;SHT31;58703;48.978;8.982;2022-09-16T13:20:18;18.54;63.61
71047;SHT31;58703;48.978;8.982;2022-09-16T13:22:56;18.30;63.12
71047;SHT31;58703;48.978;8.982;2022-09-16T13:25:28;18.34;64.32
71047;SHT31;58703;48.978;8.982;2022-09-16T13:28:03;18.34;67.88
71047;SHT31;58703;48.978;8.982;2022-09-16T13:30:33;18.35;65.70
71047;SHT31;58703;48.978;8.982;2022-09-16T13:33:26;17.82;63.24
71047;SHT31;58703;48.978;8.982;2022-09-16T13:36:28;18.45;64.41
71047;SHT31;58703;48.978;8.982;2022-09-16T13:39:04;19.71;61.89
71047;SHT31;58703;48.978;8.982;2022-09-16T13:41:38;18.79;65.25
71047;SHT31;58703;48.978;8.982;2022-09-16T13:47:16;17.79;65.32
71047;SHT31;58703;48.978;8.982;2022-09-16T13:49:50;17.16;65.80
71047;SHT31;58703;48.978;8.982;2022-09-16T13:52:30;17.93;64.39
71047;SHT31;58703;48.978;8.982;2022-09-16T13:55:24;19.33;60.26
71047;SHT31;58703;48.978;8.982;2022-09-16T14:04:00;16.70;67.94
71047;SHT31;58703;48.978;8.982;2022-09-16T14:06:46;16.39;70.88
71047;SHT31;58703;48.978;8.982;2022-09-16T14:12:17;16.70;70.89
71047;SHT31;58703;48.978;8.982;2022-09-16T14:14:45;16.37;69.83
71047;SHT31;58703;48.978;8.982;2022-09-16T14:17:21;18.03;66.01
71047;SHT31;58703;48.978;8.982;2022-09-16T14:19:51;18.95;62.91
71047;SHT31;58703;48.978;8.982;2022-09-16T14:22:21;20.31;59.39
71047;SHT31;58703;48.978;8.982;2022-09-16T14:24:47;20.14;59.45
71047;SHT31;58703;48.978;8.982;2022-09-16T14:27:33;20.72;56.61
71047;SHT31;58703;48.978;8.982;2022-09-16T14:30:03;20.77;58.07
71047;SHT31;58703;48.978;8.982;2022-09-16T14:32:36;19.45;57.73
71047;SHT31;58703;48.978;8.982;2022-09-16T14:35:10;20.62;56.80
71047;SHT31;58703;48.978;8.982;2022-09-16T14:37:37;21.00;54.70
71047;SHT31;58703;48.978;8.982;2022-09-16T14:40:11;20.11;54.44
71047;SHT31;58703;48.978;8.982;2022-09-16T14:42:47;20.35;56.07
71047;SHT31;58703;48.978;8.982;2022-09-16T14:45:31;20.49;53.51
71047;SHT31;58703;48.978;8.982;2022-09-16T14:48:01;19.56;54.90
71047;SHT31;58703;48.978;8.982;2022-09-16T14:50:38;19.60;54.59
71047;SHT31;58703;48.978;8.982;2022-09-16T14:53:18;20.65;53.66
71047;SHT31;58703;48.978;8.982;2022-09-16T14:55:49;20.14;52.73
71047;SHT31;58703;48.978;8.982;2022-09-16T14:58:15;19.17;56.05
71047;SHT31;58703;48.978;8.982;2022-09-16T15:00:46;19.05;54.88
71047;SHT31;58703;48.978;8.982;2022-09-16T15:03:19;19.92;53.40
71047;SHT31;58703;48.978;8.982;2022-09-16T15:05:49;17.84;56.08
71047;SHT31;58703;48.978;8.982;2022-09-16T15:08:56;18.51;56.03
71047;SHT31;58703;48.978;8.982;2022-09-16T15:11:31;17.31;58.96
71047;SHT31;58703;48.978;8.982;2022-09-16T15:13:59;17.18;58.59
71047;SHT31;58703;48.978;8.982;2022-09-16T15:17:04;19.30;53.84
71047;SHT31;58703;48.978;8.982;2022-09-16T15:19:38;19.54;52.59
71047;SHT31;58703;48.978;8.982;2022-09-16T15:22:07;19.81;52.33
71047;SHT31;58703;48.978;8.982;2022-09-16T15:24:57;19.45;51.89
71047;SHT31;58703;48.978;8.982;2022-09-16T15:27:28;19.31;52.43
71047;SHT31;58703;48.978;8.982;2022-09-16T15:30:00;19.15;53.09
71047;SHT31;58703;48.978;8.982;2022-09-16T15:32:30;17.22;58.62
71047;SHT31;58703;48.978;8.982;2022-09-16T15:35:10;17.01;58.43
71047;SHT31;58703;48.978;8.982;2022-09-16T15:37:36;18.64;53.97
71047;SHT31;58703;48.978;8.982;2022-09-16T15:40:08;18.94;53.81
71047;SHT31;58703;48.978;8.982;2022-09-16T15:42:35;18.45;56.18
71047;SHT31;58703;48.978;8.982;2022-09-16T15:45:02;17.16;60.54
71047;SHT31;58703;48.978;8.982;2022-09-16T15:47:55;18.75;54.20
71047;SHT31;58703;48.978;8.982;2022-09-16T15:50:23;19.24;52.94
71047;SHT31;58703;48.978;8.982;2022-09-16T15:52:55;19.34;52.38
71047;SHT31;58703;48.978;8.982;2022-09-16T15:55:50;17.82;54.79
71047;SHT31;58703;48.978;8.982;2022-09-16T15:58:43;16.74;58.42
71047;SHT31;58703;48.978;8.982;2022-09-16T16:04:10;16.36;60.81
71047;SHT31;58703;48.978;8.982;2022-09-16T16:07:00;16.20;60.15
71047;SHT31;58703;48.978;8.982;2022-09-16T16:09:31;16.17;60.88
71047;SHT31;58703;48.978;8.982;2022-09-16T16:12:09;16.10;61.92
71047;SHT31;58703;48.978;8.982;2022-09-16T16:14:37;16.10;61.52
71047;SHT31;58703;48.978;8.982;2022-09-16T16:17:10;15.79;68.28
71047;SHT31;58703;48.978;8.982;2022-09-16T16:19:36;15.12;70.40
71047;SHT31;58703;48.978;8.982;2022-09-16T16:22:04;14.74;72.66
71047;SHT31;58703;48.978;8.982;2022-09-16T16:24:31;14.63;71.73
71047;SHT31;58703;48.978;8.982;2022-09-16T16:26:58;14.56;71.59
71047;SHT31;58703;48.978;8.982;2022-09-16T16:29:26;14.49;72.79
71047;SHT31;58703;48.978;8.982;2022-09-16T16:34:26;14.46;73.49
71047;SHT31;58703;48.978;8.982;2022-09-16T16:36:53;14.44;73.77
71047;SHT31;58703;48.978;8.982;2022-09-16T16:39:20;14.43;74.30
71047;SHT31;58703;48.978;8.982;2022-09-16T16:41:49;14.44;74.66
71047;SHT31;58703;48.978;8.982;2022-09-16T16:44:15;14.44;74.95
71047;SHT31;58703;48.978;8.982;2022-09-16T16:46:40;14.44;73.93
71047;SHT31;58703;48.978;8.982;2022-09-16T16:49:06;14.30;73.44
71047;SHT31;58703;48.978;8.982;2022-09-16T16:51:32;14.16;73.07
71047;SHT31;58703;48.978;8.982;2022-09-16T16:53:58;14.08;74.04
71047;SHT31;58703;48.978;8.982;2022-09-16T16:56:25;13.98;75.56
71047;SHT31;58703;48.978;8.982;2022-09-16T16:58:53;13.89;76.38
71047;SHT31;58703;48.978;8.982;2022-09-16T17:01:19;13.67;76.83
71047;SHT31;58703;48.978;8.982;2022-09-16T17:03:46;13.23;81.02
71047;SHT31;58703;48.978;8.982;2022-09-16T17:06:15;12.75;84.64
71047;SHT31;58703;48.978;8.982;2022-09-16T17:08:41;12.35;87.23
71047;SHT31;58703;48.978;8.982;2022-09-16T17:11:11;12.13;89.50
71047;SHT31;58703;48.978;8.982;2022-09-16T17:13:41;12.02;91.03
71047;SHT31;58703;48.978;8.982;2022-09-16T17:16:08;11.98;91.61
71047;SHT31;58703;48.978;8.982;2022-09-16T17:18:35;11.97;92.25
71047;SHT31;58703;48.978;8.982;2022-09-16T17:21:06;11.93;91.63
71047;SHT31;58703;48.978;8.982;2022-09-16T17:23:32;11.94;91.19
71047;SHT31;58703;48.978;8.982;2022-09-16T17:25:59;11.99;91.64
71047;SHT31;58703;48.978;8.982;2022-09-16T17:28:24;11.95;91.86
71047;SHT31;58703;48.978;8.982;2022-09-16T17:30:50;11.94;92.82
71047;SHT31;58703;48.978;8.982;2022-09-16T17:33:16;11.88;91.94
71047;SHT31;58703;48.978;8.982;2022-09-16T17:35:42;11.88;91.77
71047;SHT31;58703;48.978;8.982;2022-09-16T17:38:09;11.87;91.17
71047;SHT31;58703;48.978;8.982;2022-09-16T17:40:34;11.84;92.56
71047;SHT31;58703;48.978;8.982;2022-09-16T17:43:00;11.78;92.40
71047;SHT31;58703;48.978;8.982;2022-09-16T17:45:26;11.73;92.17
71047;SHT31;58703;48.978;8.982;2022-09-16T17:47:52;11.70;91.77
71047;SHT31;58703;48.978;8.982;2022-09-16T17:50:18;11.78;91.50
71047;SHT31;58703;48.978;8.982;2022-09-16T17:52:43;11.83;91.14
71047;SHT31;58703;48.978;8.982;2022-09-16T17:55:10;11.78;92.19
71047;SHT31;58703;48.978;8.982;2022-09-16T17:57:36;11.80;90.64
71047;SHT31;58703;48.978;8.982;2022-09-16T18:00:03;11.78;90.54
71047;SHT31;58703;48.978;8.982;2022-09-16T18:02:29;11.74;90.58
71047;SHT31;58703;48.978;8.982;2022-09-16T18:04:54;11.75;90.65
71047;SHT31;58703;48.978;8.982;2022-09-16T18:07:20;11.69;91.31
71047;SHT31;58703;48.978;8.982;2022-09-16T18:09:45;11.57;92.02
71047;SHT31;58703;48.978;8.982;2022-09-16T18:12:11;11.57;92.06
71047;SHT31;58703;48.978;8.982;2022-09-16T18:14:36;11.53;93.00
71047;SHT31;58703;48.978;8.982;2022-09-16T18:17:02;11.54;94.15
71047;SHT31;58703;48.978;8.982;2022-09-16T18:19:27;11.56;93.96
71047;SHT31;58703;48.978;8.982;2022-09-16T18:21:53;11.59;95.26
71047;SHT31;58703;48.978;8.982;2022-09-16T18:24:18;11.47;94.23
71047;SHT31;58703;48.978;8.982;2022-09-16T18:26:45;11.46;95.79
71047;SHT31;58703;48.978;8.982;2022-09-16T18:29:12;11.34;95.49
71047;SHT31;58703;48.978;8.982;2022-09-16T18:31:40;11.18;95.49
71047;SHT31;58703;48.978;8.982;2022-09-16T18:34:06;11.06;96.47
71047;SHT31;58703;48.978;8.982;2022-09-16T18:36:31;11.01;96.57
71047;SHT31;58703;48.978;8.982;2022-09-16T18:38:57;11.05;96.66